sensor_id;sensor_type;location;lat;lon;timestamp;P1;durP1;ratioP1;P2;durP2;ratioP2
20669;SDS011;10494;50.868;4.180;2023-04-24T00:00:18;26.20;;;13.07;;
20669;SDS011;10494;50.868;4.180;2023-04-24T00:02:44;27.17;;;12.38;;
20669;SDS011;10494;50.868;4.180;2023-04-24T00:05:14;33.08;;;12.88;;
20669;SDS011;10494;50.868;4.180;2023-04-24T00:07:44;24.63;;;13.80;;
20669;SDS011;10494;50.868;4.180;2023-04-24T00:10:10;25.52;;;12.70;;
20669;SDS011;10494;50.868;4.180;2023-04-24T00:12:37;22.05;;;13.10;;
20669;SDS011;10494;50.868;4.180;2023-04-24T00:15:03;29.95;;;14.43;;
20669;SDS011;10494;50.868;4.180;2023-04-24T00:17:29;24.85;;;12.93;;
20669;SDS011;10494;50.868;4.180;2023-04-24T00:19:55;28.95;;;13.77;;
20669;SDS011;10494;50.868;4.180;2023-04-24T00:22:24;25.77;;;14.10;;
20669;SDS011;10494;50.868;4.180;2023-04-24T00:24:50;23.17;;;13.73;;
20669;SDS011;10494;50.868;4.180;2023-04-24T00:27:16;21.85;;;12.82;;
20669;SDS011;10494;50.868;4.180;2023-04-24T00:29:42;29.95;;;13.25;;
20669;SDS011;10494;50.868;4.180;2023-04-24T00:32:07;26.73;;;13.53;;
20669;SDS011;10494;50.868;4.180;2023-04-24T00:34:33;28.13;;;13.68;;
20669;SDS011;10494;50.868;4.180;2023-04-24T00:36:59;29.70;;;13.40;;
20669;SDS011;10494;50.868;4.180;2023-04-24T00:39:24;24.70;;;13.45;;
20669;SDS011;10494;50.868;4.180;2023-04-24T00:41:51;28.75;;;13.98;;
20669;SDS011;10494;50.868;4.180;2023-04-24T00:44:18;29.65;;;13.73;;
20669;SDS011;10494;50.868;4.180;2023-04-24T00:46:44;28.15;;;12.82;;
20669;SDS011;10494;50.868;4.180;2023-04-24T00:49:11;26.63;;;13.00;;
20669;SDS011;10494;50.868;4.180;2023-04-24T00:51:38;30.23;;;14.67;;
20669;SDS011;10494;50.868;4.180;2023-04-24T00:54:05;24.10;;;13.13;;
20669;SDS011;10494;50.868;4.180;2023-04-24T00:56:32;26.58;;;14.02;;
20669;SDS011;10494;50.868;4.180;2023-04-24T00:58:58;28.20;;;13.75;;
20669;SDS011;10494;50.868;4.180;2023-04-24T01:01:24;30.48;;;14.80;;
20669;SDS011;10494;50.868;4.180;2023-04-24T01:03:50;31.92;;;14.57;;
20669;SDS011;10494;50.868;4.180;2023-04-24T01:06:18;32.13;;;14.80;;
20669;SDS011;10494;50.868;4.180;2023-04-24T01:08:44;28.67;;;14.00;;
20669;SDS011;10494;50.868;4.180;2023-04-24T01:11:11;32.30;;;15.27;;
20669;SDS011;10494;50.868;4.180;2023-04-24T01:13:37;26.33;;;14.13;;
20669;SDS011;10494;50.868;4.180;2023-04-24T01:16:03;30.30;;;14.20;;
20669;SDS011;10494;50.868;4.180;2023-04-24T01:18:28;31.83;;;15.17;;
20669;SDS011;10494;50.868;4.180;2023-04-24T01:20:56;26.80;;;14.43;;
20669;SDS011;10494;50.868;4.180;2023-04-24T01:23:23;24.60;;;14.13;;
20669;SDS011;10494;50.868;4.180;2023-04-24T01:25:49;28.00;;;14.70;;
20669;SDS011;10494;50.868;4.180;2023-04-24T01:28:16;27.63;;;12.80;;
20669;SDS011;10494;50.868;4.180;2023-04-24T01:30:42;22.17;;;14.03;;
20669;SDS011;10494;50.868;4.180;2023-04-24T01:33:08;20.83;;;12.87;;
20669;SDS011;10494;50.868;4.180;2023-04-24T01:35:34;28.92;;;12.27;;
20669;SDS011;10494;50.868;4.180;2023-04-24T01:38:01;20.05;;;11.73;;
20669;SDS011;10494;50.868;4.180;2023-04-24T01:40:27;27.30;;;11.77;;
20669;SDS011;10494;50.868;4.180;2023-04-24T01:42:52;21.60;;;10.65;;
20669;SDS011;10494;50.868;4.180;2023-04-24T01:45:18;22.27;;;11.43;;
20669;SDS011;10494;50.868;4.180;2023-04-24T01:47:44;15.65;;;10.40;;
20669;SDS011;10494;50.868;4.180;2023-04-24T01:50:11;17.67;;;9.60;;
20669;SDS011;10494;50.868;4.180;2023-04-24T01:52:36;18.37;;;10.37;;
20669;SDS011;10494;50.868;4.180;2023-04-24T01:55:03;20.60;;;10.90;;
20669;SDS011;10494;50.868;4.180;2023-04-24T01:57:31;22.30;;;10.87;;
20669;SDS011;10494;50.868;4.180;2023-04-24T01:59:56;20.07;;;11.20;;
20669;SDS011;10494;50.868;4.180;2023-04-24T02:02:22;19.57;;;10.93;;
20669;SDS011;10494;50.868;4.180;2023-04-24T02:04:53;20.73;;;10.88;;
20669;SDS011;10494;50.868;4.180;2023-04-24T02:07:19;16.37;;;10.53;;
20669;SDS011;10494;50.868;4.180;2023-04-24T02:09:45;17.20;;;10.13;;
20669;SDS011;10494;50.868;4.180;2023-04-24T02:12:11;18.83;;;10.38;;
20669;SDS011;10494;50.868;4.180;2023-04-24T02:14:36;22.77;;;10.53;;
20669;SDS011;10494;50.868;4.180;2023-04-24T02:17:02;18.03;;;9.97;;
20669;SDS011;10494;50.868;4.180;2023-04-24T02:19:28;16.67;;;9.93;;
20669;SDS011;10494;50.868;4.180;2023-04-24T02:21:54;17.05;;;10.35;;
20669;SDS011;10494;50.868;4.180;2023-04-24T02:24:19;20.25;;;10.93;;
20669;SDS011;10494;50.868;4.180;2023-04-24T02:26:45;22.70;;;11.37;;
20669;SDS011;10494;50.868;4.180;2023-04-24T02:29:11;18.30;;;10.90;;
20669;SDS011;10494;50.868;4.180;2023-04-24T02:31:36;18.40;;;11.10;;
20669;SDS011;10494;50.868;4.180;2023-04-24T02:34:02;29.17;;;11.98;;
20669;SDS011;10494;50.868;4.180;2023-04-24T02:36:28;19.03;;;10.77;;
20669;SDS011;10494;50.868;4.180;2023-04-24T02:38:53;24.87;;;11.50;;
20669;SDS011;10494;50.868;4.180;2023-04-24T02:41:19;21.80;;;10.88;;
20669;SDS011;10494;50.868;4.180;2023-04-24T02:43:45;22.17;;;11.93;;
20669;SDS011;10494;50.868;4.180;2023-04-24T02:46:10;20.77;;;10.80;;
20669;SDS011;10494;50.868;4.180;2023-04-24T02:48:36;22.80;;;10.80;;
20669;SDS011;10494;50.868;4.180;2023-04-24T02:51:01;23.40;;;10.90;;
20669;SDS011;10494;50.868;4.180;2023-04-24T02:53:28;18.55;;;10.15;;
20669;SDS011;10494;50.868;4.180;2023-04-24T02:55:55;20.67;;;11.00;;
20669;SDS011;10494;50.868;4.180;2023-04-24T02:58:21;20.93;;;10.63;;
20669;SDS011;10494;50.868;4.180;2023-04-24T03:00:47;19.03;;;10.87;;
20669;SDS011;10494;50.868;4.180;2023-04-24T03:03:13;22.00;;;9.40;;
20669;SDS011;10494;50.868;4.180;2023-04-24T03:05:38;16.57;;;9.37;;
20669;SDS011;10494;50.868;4.180;2023-04-24T03:08:04;17.37;;;10.10;;
20669;SDS011;10494;50.868;4.180;2023-04-24T03:10:31;19.77;;;10.50;;
20669;SDS011;10494;50.868;4.180;2023-04-24T03:12:57;22.13;;;10.73;;
20669;SDS011;10494;50.868;4.180;2023-04-24T03:15:22;19.47;;;10.33;;
20669;SDS011;10494;50.868;4.180;2023-04-24T03:17:48;19.03;;;11.10;;
20669;SDS011;10494;50.868;4.180;2023-04-24T03:20:14;18.93;;;10.57;;
20669;SDS011;10494;50.868;4.180;2023-04-24T03:22:40;17.17;;;10.57;;
20669;SDS011;10494;50.868;4.180;2023-04-24T03:25:06;20.93;;;11.50;;
20669;SDS011;10494;50.868;4.180;2023-04-24T03:27:34;16.07;;;10.53;;
20669;SDS011;10494;50.868;4.180;2023-04-24T03:29:59;18.97;;;10.13;;
20669;SDS011;10494;50.868;4.180;2023-04-24T03:32:25;15.60;;;8.57;;
20669;SDS011;10494;50.868;4.180;2023-04-24T03:34:51;16.73;;;8.80;;
20669;SDS011;10494;50.868;4.180;2023-04-24T03:37:17;15.47;;;9.90;;
20669;SDS011;10494;50.868;4.180;2023-04-24T03:39:42;14.73;;;8.50;;
20669;SDS011;10494;50.868;4.180;2023-04-24T03:42:08;15.50;;;8.27;;
20669;SDS011;10494;50.868;4.180;2023-04-24T03:44:34;14.73;;;8.33;;
20669;SDS011;10494;50.868;4.180;2023-04-24T03:47:00;14.90;;;8.50;;
20669;SDS011;10494;50.868;4.180;2023-04-24T03:49:26;15.35;;;8.32;;
20669;SDS011;10494;50.868;4.180;2023-04-24T03:51:52;11.13;;;8.02;;
20669;SDS011;10494;50.868;4.180;2023-04-24T03:54:18;10.47;;;7.37;;
20669;SDS011;10494;50.868;4.180;2023-04-24T03:56:44;11.87;;;7.73;;
20669;SDS011;10494;50.868;4.180;2023-04-24T03:59:10;12.70;;;7.68;;
20669;SDS011;10494;50.868;4.180;2023-04-24T04:01:35;14.13;;;7.83;;
20669;SDS011;10494;50.868;4.180;2023-04-24T04:04:02;12.30;;;7.20;;
20669;SDS011;10494;50.868;4.180;2023-04-24T04:06:28;16.60;;;7.70;;
20669;SDS011;10494;50.868;4.180;2023-04-24T04:08:55;13.17;;;7.20;;
20669;SDS011;10494;50.868;4.180;2023-04-24T04:11:22;13.20;;;7.07;;
20669;SDS011;10494;50.868;4.180;2023-04-24T04:13:47;10.67;;;6.27;;
20669;SDS011;10494;50.868;4.180;2023-04-24T04:16:13;13.37;;;7.87;;
20669;SDS011;10494;50.868;4.180;2023-04-24T04:18:41;13.83;;;6.90;;
20669;SDS011;10494;50.868;4.180;2023-04-24T04:21:07;13.73;;;7.77;;
20669;SDS011;10494;50.868;4.180;2023-04-24T04:23:33;11.70;;;6.83;;
20669;SDS011;10494;50.868;4.180;2023-04-24T04:25:58;12.30;;;7.38;;
20669;SDS011;10494;50.868;4.180;2023-04-24T04:28:24;14.00;;;7.23;;
20669;SDS011;10494;50.868;4.180;2023-04-24T04:30:51;13.33;;;7.70;;
20669;SDS011;10494;50.868;4.180;2023-04-24T04:33:20;13.57;;;8.05;;
20669;SDS011;10494;50.868;4.180;2023-04-24T04:35:46;19.30;;;9.90;;
20669;SDS011;10494;50.868;4.180;2023-04-24T04:38:17;17.97;;;10.40;;
20669;SDS011;10494;50.868;4.180;2023-04-24T04:40:46;25.57;;;11.30;;
20669;SDS011;10494;50.868;4.180;2023-04-24T04:43:12;26.50;;;12.13;;
20669;SDS011;10494;50.868;4.180;2023-04-24T04:45:41;21.87;;;13.23;;
20669;SDS011;10494;50.868;4.180;2023-04-24T04:48:08;21.60;;;11.87;;
20669;SDS011;10494;50.868;4.180;2023-04-24T04:50:34;23.70;;;13.83;;
20669;SDS011;10494;50.868;4.180;2023-04-24T04:53:00;25.43;;;13.53;;
20669;SDS011;10494;50.868;4.180;2023-04-24T04:55:26;27.13;;;14.17;;
20669;SDS011;10494;50.868;4.180;2023-04-24T04:57:52;30.53;;;13.57;;
20669;SDS011;10494;50.868;4.180;2023-04-24T05:00:18;25.53;;;12.77;;
20669;SDS011;10494;50.868;4.180;2023-04-24T05:02:44;28.00;;;13.60;;
20669;SDS011;10494;50.868;4.180;2023-04-24T05:05:09;31.97;;;13.93;;
20669;SDS011;10494;50.868;4.180;2023-04-24T05:07:35;27.97;;;15.20;;
20669;SDS011;10494;50.868;4.180;2023-04-24T05:10:01;28.07;;;14.40;;
20669;SDS011;10494;50.868;4.180;2023-04-24T05:12:27;25.97;;;13.97;;
20669;SDS011;10494;50.868;4.180;2023-04-24T05:14:52;23.93;;;13.90;;
20669;SDS011;10494;50.868;4.180;2023-04-24T05:17:18;25.67;;;14.53;;
20669;SDS011;10494;50.868;4.180;2023-04-24T05:19:44;31.47;;;14.40;;
20669;SDS011;10494;50.868;4.180;2023-04-24T05:22:09;25.80;;;15.17;;
20669;SDS011;10494;50.868;4.180;2023-04-24T05:24:36;31.97;;;13.30;;
20669;SDS011;10494;50.868;4.180;2023-04-24T05:27:02;27.37;;;14.63;;
20669;SDS011;10494;50.868;4.180;2023-04-24T05:29:29;28.93;;;14.43;;
20669;SDS011;10494;50.868;4.180;2023-04-24T05:31:56;26.00;;;14.67;;
20669;SDS011;10494;50.868;4.180;2023-04-24T05:34:22;33.50;;;15.33;;
20669;SDS011;10494;50.868;4.180;2023-04-24T05:36:48;26.37;;;14.13;;
20669;SDS011;10494;50.868;4.180;2023-04-24T05:39:15;32.40;;;15.57;;
20669;SDS011;10494;50.868;4.180;2023-04-24T05:41:41;22.77;;;13.93;;
20669;SDS011;10494;50.868;4.180;2023-04-24T05:44:06;31.07;;;15.37;;
20669;SDS011;10494;50.868;4.180;2023-04-24T05:46:32;28.23;;;13.80;;
20669;SDS011;10494;50.868;4.180;2023-04-24T05:48:58;30.43;;;13.43;;
20669;SDS011;10494;50.868;4.180;2023-04-24T05:51:24;25.43;;;13.13;;
20669;SDS011;10494;50.868;4.180;2023-04-24T05:53:50;28.80;;;13.13;;
20669;SDS011;10494;50.868;4.180;2023-04-24T05:56:16;25.97;;;14.00;;
20669;SDS011;10494;50.868;4.180;2023-04-24T05:58:42;31.43;;;14.33;;
20669;SDS011;10494;50.868;4.180;2023-04-24T06:01:08;27.90;;;13.47;;
20669;SDS011;10494;50.868;4.180;2023-04-24T06:03:34;28.03;;;14.00;;
20669;SDS011;10494;50.868;4.180;2023-04-24T06:06:00;25.37;;;13.43;;
20669;SDS011;10494;50.868;4.180;2023-04-24T06:08:25;32.20;;;14.13;;
20669;SDS011;10494;50.868;4.180;2023-04-24T06:10:51;27.63;;;14.53;;
20669;SDS011;10494;50.868;4.180;2023-04-24T06:13:17;35.83;;;15.30;;
20669;SDS011;10494;50.868;4.180;2023-04-24T06:15:43;35.73;;;16.30;;
20669;SDS011;10494;50.868;4.180;2023-04-24T06:18:09;27.10;;;14.33;;
20669;SDS011;10494;50.868;4.180;2023-04-24T06:20:37;28.03;;;15.07;;
20669;SDS011;10494;50.868;4.180;2023-04-24T06:23:03;29.53;;;15.60;;
20669;SDS011;10494;50.868;4.180;2023-04-24T06:25:29;29.47;;;16.67;;
20669;SDS011;10494;50.868;4.180;2023-04-24T06:27:55;41.53;;;16.10;;
20669;SDS011;10494;50.868;4.180;2023-04-24T06:30:21;37.00;;;16.80;;
20669;SDS011;10494;50.868;4.180;2023-04-24T06:32:47;36.07;;;16.80;;
20669;SDS011;10494;50.868;4.180;2023-04-24T06:35:13;36.80;;;19.27;;
20669;SDS011;10494;50.868;4.180;2023-04-24T06:37:39;33.43;;;16.63;;
20669;SDS011;10494;50.868;4.180;2023-04-24T06:40:06;36.80;;;18.47;;
20669;SDS011;10494;50.868;4.180;2023-04-24T06:42:32;35.27;;;16.33;;
20669;SDS011;10494;50.868;4.180;2023-04-24T06:44:58;38.13;;;18.63;;
20669;SDS011;10494;50.868;4.180;2023-04-24T06:47:24;44.87;;;18.60;;
20669;SDS011;10494;50.868;4.180;2023-04-24T06:49:49;37.47;;;19.10;;
20669;SDS011;10494;50.868;4.180;2023-04-24T06:52:17;38.77;;;19.13;;
20669;SDS011;10494;50.868;4.180;2023-04-24T06:54:43;44.13;;;19.43;;
20669;SDS011;10494;50.868;4.180;2023-04-24T06:57:09;28.40;;;17.70;;
20669;SDS011;10494;50.868;4.180;2023-04-24T06:59:35;39.60;;;17.67;;
20669;SDS011;10494;50.868;4.180;2023-04-24T07:02:01;39.23;;;18.10;;
20669;SDS011;10494;50.868;4.180;2023-04-24T07:04:27;32.57;;;16.33;;
20669;SDS011;10494;50.868;4.180;2023-04-24T07:06:53;31.73;;;15.67;;
20669;SDS011;10494;50.868;4.180;2023-04-24T07:09:20;34.30;;;16.60;;
20669;SDS011;10494;50.868;4.180;2023-04-24T07:11:47;33.70;;;15.50;;
20669;SDS011;10494;50.868;4.180;2023-04-24T07:14:13;37.23;;;15.70;;
20669;SDS011;10494;50.868;4.180;2023-04-24T07:16:39;33.13;;;15.35;;
20669;SDS011;10494;50.868;4.180;2023-04-24T07:19:04;31.13;;;14.63;;
20669;SDS011;10494;50.868;4.180;2023-04-24T07:21:30;37.50;;;14.87;;
20669;SDS011;10494;50.868;4.180;2023-04-24T07:23:57;28.57;;;14.53;;
20669;SDS011;10494;50.868;4.180;2023-04-24T07:26:26;28.37;;;15.00;;
20669;SDS011;10494;50.868;4.180;2023-04-24T07:28:53;29.53;;;14.60;;
20669;SDS011;10494;50.868;4.180;2023-04-24T07:31:18;33.20;;;15.43;;
20669;SDS011;10494;50.868;4.180;2023-04-24T07:33:44;36.73;;;15.90;;
20669;SDS011;10494;50.868;4.180;2023-04-24T07:36:10;32.27;;;17.03;;
20669;SDS011;10494;50.868;4.180;2023-04-24T07:38:40;31.47;;;14.90;;
20669;SDS011;10494;50.868;4.180;2023-04-24T07:41:09;30.23;;;14.73;;
20669;SDS011;10494;50.868;4.180;2023-04-24T07:43:35;27.00;;;12.67;;
20669;SDS011;10494;50.868;4.180;2023-04-24T07:46:01;27.48;;;12.93;;
20669;SDS011;10494;50.868;4.180;2023-04-24T07:48:27;29.77;;;13.27;;
20669;SDS011;10494;50.868;4.180;2023-04-24T07:50:52;23.80;;;10.77;;
20669;SDS011;10494;50.868;4.180;2023-04-24T07:53:18;25.92;;;11.27;;
20669;SDS011;10494;50.868;4.180;2023-04-24T07:55:44;16.40;;;9.88;;
20669;SDS011;10494;50.868;4.180;2023-04-24T07:58:10;24.70;;;10.38;;
20669;SDS011;10494;50.868;4.180;2023-04-24T08:00:35;21.73;;;10.25;;
20669;SDS011;10494;50.868;4.180;2023-04-24T08:03:01;20.23;;;8.75;;
20669;SDS011;10494;50.868;4.180;2023-04-24T08:05:27;18.05;;;8.38;;
20669;SDS011;10494;50.868;4.180;2023-04-24T08:07:53;23.23;;;9.00;;
20669;SDS011;10494;50.868;4.180;2023-04-24T08:10:20;27.55;;;8.45;;
20669;SDS011;10494;50.868;4.180;2023-04-24T08:12:49;17.70;;;9.18;;
20669;SDS011;10494;50.868;4.180;2023-04-24T08:15:14;21.60;;;8.60;;
20669;SDS011;10494;50.868;4.180;2023-04-24T08:17:40;25.30;;;8.25;;
20669;SDS011;10494;50.868;4.180;2023-04-24T08:20:08;28.23;;;8.73;;
20669;SDS011;10494;50.868;4.180;2023-04-24T08:22:38;24.70;;;8.25;;
20669;SDS011;10494;50.868;4.180;2023-04-24T08:25:06;22.95;;;8.90;;
20669;SDS011;10494;50.868;4.180;2023-04-24T08:27:32;21.23;;;8.32;;
20669;SDS011;10494;50.868;4.180;2023-04-24T08:29:57;22.38;;;8.13;;
20669;SDS011;10494;50.868;4.180;2023-04-24T08:32:26;20.08;;;7.57;;
20669;SDS011;10494;50.868;4.180;2023-04-24T08:34:55;16.50;;;6.72;;
20669;SDS011;10494;50.868;4.180;2023-04-24T08:37:22;21.08;;;6.50;;
20669;SDS011;10494;50.868;4.180;2023-04-24T08:39:49;15.40;;;6.45;;
20669;SDS011;10494;50.868;4.180;2023-04-24T08:42:15;14.50;;;5.85;;
20669;SDS011;10494;50.868;4.180;2023-04-24T08:44:43;15.73;;;5.80;;
20669;SDS011;10494;50.868;4.180;2023-04-24T08:47:09;17.00;;;5.50;;
20669;SDS011;10494;50.868;4.180;2023-04-24T08:49:36;9.52;;;4.38;;
20669;SDS011;10494;50.868;4.180;2023-04-24T08:52:02;14.20;;;5.10;;
20669;SDS011;10494;50.868;4.180;2023-04-24T08:54:29;10.82;;;4.38;;
20669;SDS011;10494;50.868;4.180;2023-04-24T08:57:00;10.82;;;4.82;;
20669;SDS011;10494;50.868;4.180;2023-04-24T08:59:27;10.30;;;4.22;;
20669;SDS011;10494;50.868;4.180;2023-04-24T09:01:53;20.52;;;5.28;;
20669;SDS011;10494;50.868;4.180;2023-04-24T09:04:21;14.35;;;4.60;;
20669;SDS011;10494;50.868;4.180;2023-04-24T09:06:49;7.80;;;4.50;;
20669;SDS011;10494;50.868;4.180;2023-04-24T09:09:22;11.63;;;4.47;;
20669;SDS011;10494;50.868;4.180;2023-04-24T09:11:49;13.32;;;4.45;;
20669;SDS011;10494;50.868;4.180;2023-04-24T09:14:15;13.02;;;4.93;;
20669;SDS011;10494;50.868;4.180;2023-04-24T09:16:42;11.90;;;4.93;;
20669;SDS011;10494;50.868;4.180;2023-04-24T09:19:07;13.65;;;4.82;;
20669;SDS011;10494;50.868;4.180;2023-04-24T09:21:33;15.60;;;4.60;;
20669;SDS011;10494;50.868;4.180;2023-04-24T09:24:01;10.82;;;4.47;;
20669;SDS011;10494;50.868;4.180;2023-04-24T09:26:31;10.13;;;4.15;;
20669;SDS011;10494;50.868;4.180;2023-04-24T09:28:59;10.77;;;4.25;;
20669;SDS011;10494;50.868;4.180;2023-04-24T09:31:26;10.90;;;3.58;;
20669;SDS011;10494;50.868;4.180;2023-04-24T09:34:00;7.45;;;3.80;;
20669;SDS011;10494;50.868;4.180;2023-04-24T09:36:31;14.55;;;4.00;;
20669;SDS011;10494;50.868;4.180;2023-04-24T09:38:59;9.98;;;4.10;;
20669;SDS011;10494;50.868;4.180;2023-04-24T09:41:26;13.00;;;4.63;;
20669;SDS011;10494;50.868;4.180;2023-04-24T09:43:56;13.48;;;4.53;;
20669;SDS011;10494;50.868;4.180;2023-04-24T09:46:32;13.10;;;5.38;;
20669;SDS011;10494;50.868;4.180;2023-04-24T09:49:02;9.75;;;3.97;;
20669;SDS011;10494;50.868;4.180;2023-04-24T09:51:35;10.85;;;4.22;;
20669;SDS011;10494;50.868;4.180;2023-04-24T09:54:02;17.33;;;4.30;;
20669;SDS011;10494;50.868;4.180;2023-04-24T09:56:37;14.82;;;4.65;;
20669;SDS011;10494;50.868;4.180;2023-04-24T09:59:08;9.75;;;4.38;;
20669;SDS011;10494;50.868;4.180;2023-04-24T10:01:33;9.45;;;4.15;;
20669;SDS011;10494;50.868;4.180;2023-04-24T10:03:59;8.38;;;3.50;;
20669;SDS011;10494;50.868;4.180;2023-04-24T10:06:35;10.57;;;4.25;;
20669;SDS011;10494;50.868;4.180;2023-04-24T10:09:02;10.85;;;4.72;;
20669;SDS011;10494;50.868;4.180;2023-04-24T10:11:28;12.27;;;5.00;;
20669;SDS011;10494;50.868;4.180;2023-04-24T10:13:55;11.75;;;4.78;;
20669;SDS011;10494;50.868;4.180;2023-04-24T10:16:23;10.98;;;4.40;;
20669;SDS011;10494;50.868;4.180;2023-04-24T10:18:49;6.32;;;4.22;;
20669;SDS011;10494;50.868;4.180;2023-04-24T10:21:16;11.27;;;4.30;;
20669;SDS011;10494;50.868;4.180;2023-04-24T10:23:42;10.55;;;4.32;;
20669;SDS011;10494;50.868;4.180;2023-04-24T10:26:17;12.07;;;4.10;;
20669;SDS011;10494;50.868;4.180;2023-04-24T10:28:47;14.18;;;4.57;;
20669;SDS011;10494;50.868;4.180;2023-04-24T10:31:13;11.73;;;4.47;;
20669;SDS011;10494;50.868;4.180;2023-04-24T10:33:40;11.65;;;4.43;;
20669;SDS011;10494;50.868;4.180;2023-04-24T10:36:10;14.48;;;5.55;;
20669;SDS011;10494;50.868;4.180;2023-04-24T10:38:39;12.13;;;4.72;;
20669;SDS011;10494;50.868;4.180;2023-04-24T10:41:07;8.80;;;4.30;;
20669;SDS011;10494;50.868;4.180;2023-04-24T10:43:34;11.82;;;4.68;;
20669;SDS011;10494;50.868;4.180;2023-04-24T10:46:01;10.43;;;5.38;;
20669;SDS011;10494;50.868;4.180;2023-04-24T10:48:28;12.43;;;4.53;;
20669;SDS011;10494;50.868;4.180;2023-04-24T10:50:54;12.63;;;5.47;;
20669;SDS011;10494;50.868;4.180;2023-04-24T10:53:20;11.98;;;5.90;;
20669;SDS011;10494;50.868;4.180;2023-04-24T10:56:04;17.55;;;5.20;;
20669;SDS011;10494;50.868;4.180;2023-04-24T10:58:42;17.88;;;4.95;;
20669;SDS011;10494;50.868;4.180;2023-04-24T11:01:29;8.65;;;4.38;;
20669;SDS011;10494;50.868;4.180;2023-04-24T11:03:56;8.18;;;4.75;;
20669;SDS011;10494;50.868;4.180;2023-04-24T11:06:30;12.07;;;5.00;;
20669;SDS011;10494;50.868;4.180;2023-04-24T11:09:06;8.60;;;4.45;;
20669;SDS011;10494;50.868;4.180;2023-04-24T11:11:37;7.35;;;4.38;;
20669;SDS011;10494;50.868;4.180;2023-04-24T11:14:06;8.63;;;4.43;;
20669;SDS011;10494;50.868;4.180;2023-04-24T11:26:56;12.23;;;5.72;;
20669;SDS011;10494;50.868;4.180;2023-04-24T11:32:36;8.88;;;4.65;;
20669;SDS011;10494;50.868;4.180;2023-04-24T11:37:39;9.68;;;5.32;;
20669;SDS011;10494;50.868;4.180;2023-04-24T11:40:06;13.45;;;5.18;;
20669;SDS011;10494;50.868;4.180;2023-04-24T11:42:40;9.18;;;5.25;;
20669;SDS011;10494;50.868;4.180;2023-04-24T11:47:40;12.55;;;5.72;;
20669;SDS011;10494;50.868;4.180;2023-04-24T11:50:07;9.43;;;4.85;;
20669;SDS011;10494;50.868;4.180;2023-04-24T11:52:39;10.77;;;5.03;;
20669;SDS011;10494;50.868;4.180;2023-04-24T11:55:07;13.07;;;5.35;;
20669;SDS011;10494;50.868;4.180;2023-04-24T11:57:33;8.07;;;5.50;;
20669;SDS011;10494;50.868;4.180;2023-04-24T12:00:01;9.52;;;5.63;;
20669;SDS011;10494;50.868;4.180;2023-04-24T12:02:28;11.30;;;5.65;;
20669;SDS011;10494;50.868;4.180;2023-04-24T12:04:54;12.70;;;5.30;;
20669;SDS011;10494;50.868;4.180;2023-04-24T12:07:20;11.10;;;5.68;;
20669;SDS011;10494;50.868;4.180;2023-04-24T12:09:48;10.90;;;5.05;;
20669;SDS011;10494;50.868;4.180;2023-04-24T12:12:23;9.90;;;4.22;;
20669;SDS011;10494;50.868;4.180;2023-04-24T12:14:55;8.18;;;4.60;;
20669;SDS011;10494;50.868;4.180;2023-04-24T12:17:29;7.00;;;4.63;;
20669;SDS011;10494;50.868;4.180;2023-04-24T12:20:05;10.95;;;5.47;;
20669;SDS011;10494;50.868;4.180;2023-04-24T12:22:46;9.10;;;4.80;;
20669;SDS011;10494;50.868;4.180;2023-04-24T12:25:12;12.27;;;4.72;;
20669;SDS011;10494;50.868;4.180;2023-04-24T12:27:38;8.25;;;4.20;;
20669;SDS011;10494;50.868;4.180;2023-04-24T12:30:04;7.25;;;4.18;;
20669;SDS011;10494;50.868;4.180;2023-04-24T12:32:32;7.15;;;4.78;;
20669;SDS011;10494;50.868;4.180;2023-04-24T12:34:57;9.20;;;4.13;;
20669;SDS011;10494;50.868;4.180;2023-04-24T12:37:24;7.45;;;4.20;;
20669;SDS011;10494;50.868;4.180;2023-04-24T12:40:00;9.30;;;4.65;;
20669;SDS011;10494;50.868;4.180;2023-04-24T12:42:26;7.60;;;4.35;;
20669;SDS011;10494;50.868;4.180;2023-04-24T12:44:56;9.02;;;4.28;;
20669;SDS011;10494;50.868;4.180;2023-04-24T12:47:27;7.88;;;4.03;;
20669;SDS011;10494;50.868;4.180;2023-04-24T12:49:54;8.52;;;3.80;;
20669;SDS011;10494;50.868;4.180;2023-04-24T12:52:23;10.15;;;4.30;;
20669;SDS011;10494;50.868;4.180;2023-04-24T12:54:54;9.68;;;4.03;;
20669;SDS011;10494;50.868;4.180;2023-04-24T12:57:22;9.57;;;4.00;;
20669;SDS011;10494;50.868;4.180;2023-04-24T12:59:48;8.65;;;4.00;;
20669;SDS011;10494;50.868;4.180;2023-04-24T13:02:13;9.35;;;4.18;;
20669;SDS011;10494;50.868;4.180;2023-04-24T13:04:42;7.93;;;3.58;;
20669;SDS011;10494;50.868;4.180;2023-04-24T13:07:09;10.32;;;3.78;;
20669;SDS011;10494;50.868;4.180;2023-04-24T13:09:35;7.82;;;3.20;;
20669;SDS011;10494;50.868;4.180;2023-04-24T13:12:01;7.60;;;3.08;;
20669;SDS011;10494;50.868;4.180;2023-04-24T13:14:27;12.10;;;3.65;;
20669;SDS011;10494;50.868;4.180;2023-04-24T13:16:52;8.07;;;3.25;;
20669;SDS011;10494;50.868;4.180;2023-04-24T13:19:18;6.97;;;3.08;;
20669;SDS011;10494;50.868;4.180;2023-04-24T13:21:44;8.40;;;2.95;;
20669;SDS011;10494;50.868;4.180;2023-04-24T13:24:10;6.30;;;3.10;;
20669;SDS011;10494;50.868;4.180;2023-04-24T13:26:36;7.90;;;3.20;;
20669;SDS011;10494;50.868;4.180;2023-04-24T13:29:01;7.55;;;3.80;;
20669;SDS011;10494;50.868;4.180;2023-04-24T13:31:28;9.98;;;3.53;;
20669;SDS011;10494;50.868;4.180;2023-04-24T13:33:54;5.28;;;3.38;;
20669;SDS011;10494;50.868;4.180;2023-04-24T13:36:20;4.57;;;2.67;;
20669;SDS011;10494;50.868;4.180;2023-04-24T13:38:45;8.05;;;3.25;;
20669;SDS011;10494;50.868;4.180;2023-04-24T13:41:11;7.90;;;3.00;;
20669;SDS011;10494;50.868;4.180;2023-04-24T13:43:37;5.88;;;2.53;;
20669;SDS011;10494;50.868;4.180;2023-04-24T13:46:02;4.65;;;2.40;;
20669;SDS011;10494;50.868;4.180;2023-04-24T13:48:28;7.28;;;2.70;;
20669;SDS011;10494;50.868;4.180;2023-04-24T13:50:55;7.10;;;2.55;;
20669;SDS011;10494;50.868;4.180;2023-04-24T13:53:20;6.18;;;2.53;;
20669;SDS011;10494;50.868;4.180;2023-04-24T13:55:46;6.10;;;2.35;;
20669;SDS011;10494;50.868;4.180;2023-04-24T13:58:12;5.97;;;2.10;;
20669;SDS011;10494;50.868;4.180;2023-04-24T14:00:38;3.72;;;2.17;;
20669;SDS011;10494;50.868;4.180;2023-04-24T14:03:04;10.27;;;2.10;;
20669;SDS011;10494;50.868;4.180;2023-04-24T14:05:30;6.15;;;2.22;;
20669;SDS011;10494;50.868;4.180;2023-04-24T14:07:55;5.13;;;1.77;;
20669;SDS011;10494;50.868;4.180;2023-04-24T14:10:21;5.18;;;1.52;;
20669;SDS011;10494;50.868;4.180;2023-04-24T14:12:46;4.75;;;1.90;;
20669;SDS011;10494;50.868;4.180;2023-04-24T14:15:13;3.88;;;1.60;;
20669;SDS011;10494;50.868;4.180;2023-04-24T14:17:38;6.78;;;1.95;;
20669;SDS011;10494;50.868;4.180;2023-04-24T14:20:05;5.40;;;1.60;;
20669;SDS011;10494;50.868;4.180;2023-04-24T14:22:32;2.75;;;1.80;;
20669;SDS011;10494;50.868;4.180;2023-04-24T14:24:58;4.25;;;2.00;;
20669;SDS011;10494;50.868;4.180;2023-04-24T14:27:24;9.40;;;2.10;;
20669;SDS011;10494;50.868;4.180;2023-04-24T14:29:50;6.15;;;2.13;;
20669;SDS011;10494;50.868;4.180;2023-04-24T14:32:15;6.63;;;2.13;;
20669;SDS011;10494;50.868;4.180;2023-04-24T14:34:41;5.75;;;1.95;;
20669;SDS011;10494;50.868;4.180;2023-04-24T14:37:07;7.22;;;2.10;;
20669;SDS011;10494;50.868;4.180;2023-04-24T14:39:33;3.45;;;1.75;;
20669;SDS011;10494;50.868;4.180;2023-04-24T14:41:58;7.75;;;2.20;;
20669;SDS011;10494;50.868;4.180;2023-04-24T14:44:24;6.47;;;2.80;;
20669;SDS011;10494;50.868;4.180;2023-04-24T14:46:51;5.53;;;2.03;;